createdAt,value
2019-02-23T00:01:59.141Z,9.15
2019-02-23T00:04:29.202Z,8.78
2019-02-23T00:06:59.195Z,9.23
2019-02-23T00:09:29.280Z,10.03
2019-02-23T00:11:59.560Z,9.25
2019-02-23T00:14:29.626Z,8.73
2019-02-23T00:16:59.932Z,9.65
2019-02-23T00:19:30.043Z,8.80
2019-02-23T00:22:00.432Z,9.80
2019-02-23T00:24:30.518Z,9.28
2019-02-23T00:27:00.811Z,8.00
2019-02-23T00:29:30.882Z,8.93
2019-02-23T00:32:01.152Z,8.93
2019-02-23T00:34:31.519Z,9.40
2019-02-23T00:37:01.619Z,8.78
2019-02-23T00:39:31.628Z,8.73
2019-02-23T00:42:01.631Z,9.30
2019-02-23T00:44:31.936Z,9.53
2019-02-23T00:47:02.386Z,9.45
2019-02-23T00:49:36.172Z,9.28
2019-02-23T00:52:04.460Z,9.13
2019-02-23T00:54:34.827Z,9.20
2019-02-23T00:57:04.916Z,9.73
2019-02-23T00:59:35.246Z,9.90
2019-02-23T01:02:05.409Z,9.73
2019-02-23T01:04:35.416Z,9.43
2019-02-23T01:07:05.714Z,9.08
2019-02-23T01:09:35.807Z,9.28
2019-02-23T01:12:05.835Z,9.93
2019-02-23T01:14:36.097Z,9.05
2019-02-23T01:17:06.478Z,10.15
2019-02-23T01:19:47.011Z,9.80
2019-02-23T01:22:08.917Z,9.35
2019-02-23T01:24:38.996Z,8.85
2019-02-23T01:27:09.484Z,9.05
2019-02-23T01:29:39.562Z,8.43
2019-02-23T01:32:09.840Z,9.60
2019-02-23T01:34:40.050Z,9.90
2019-02-23T01:37:10.053Z,8.58
2019-02-23T01:39:40.345Z,8.78
2019-02-23T01:42:10.421Z,8.48
2019-02-23T01:44:40.694Z,8.03
2019-02-23T01:47:13.504Z,7.65
2019-02-23T01:49:43.603Z,7.45
2019-02-23T01:52:13.606Z,8.80
2019-02-23T01:54:43.645Z,9.18
2019-02-23T01:57:13.683Z,8.30
2019-02-23T01:59:43.869Z,8.45
2019-02-23T02:02:14.239Z,7.67
2019-02-23T02:04:44.248Z,7.37
2019-02-23T02:07:14.271Z,8.05
2019-02-23T02:09:44.595Z,8.23
2019-02-23T02:12:16.303Z,7.78
2019-02-23T02:14:46.560Z,7.78
2019-02-23T02:17:16.962Z,8.23
2019-02-23T02:19:47.483Z,7.42
2019-02-23T02:22:17.591Z,8.43
2019-02-23T02:24:47.628Z,8.43
2019-02-23T02:27:17.914Z,7.22
2019-02-23T02:29:47.983Z,7.80
2019-02-23T02:32:18.047Z,7.67
2019-02-23T02:34:48.305Z,7.72
2019-02-23T02:37:18.418Z,8.38
2019-02-23T02:39:48.422Z,7.58
2019-02-23T02:42:18.444Z,7.72
2019-02-23T02:44:48.714Z,7.97
2019-02-23T02:47:18.805Z,7.87
2019-02-23T02:49:49.097Z,7.97
2019-02-23T02:52:19.211Z,8.08
2019-02-23T02:54:50.415Z,7.47
2019-02-23T02:57:20.417Z,7.67
2019-02-23T02:59:50.492Z,8.13
2019-02-23T03:02:20.463Z,8.80
2019-02-23T03:04:50.502Z,7.22
2019-02-23T03:07:20.534Z,7.55
2019-02-23T03:09:50.829Z,7.65
2019-02-23T03:12:22.003Z,7.87
2019-02-23T03:14:52.045Z,7.83
2019-02-23T03:17:22.492Z,7.22
2019-02-23T03:19:52.613Z,7.08
2019-02-23T03:22:22.879Z,7.80
2019-02-23T03:24:53.260Z,7.35
2019-02-23T03:27:23.612Z,7.50
2019-02-23T03:29:53.988Z,7.50
2019-02-23T03:32:24.355Z,6.90
2019-02-23T03:34:54.460Z,7.33
2019-02-23T03:37:24.712Z,6.53
2019-02-23T03:39:54.810Z,7.40
2019-02-23T03:42:25.076Z,7.25
2019-02-23T03:44:55.554Z,7.78
2019-02-23T03:47:25.654Z,7.37
2019-02-23T03:49:55.658Z,7.25
2019-02-23T03:52:25.928Z,7.55
2019-02-23T03:54:56.009Z,7.00
2019-02-23T03:57:26.130Z,7.60
2019-02-23T03:59:56.122Z,7.45
2019-02-23T04:02:26.387Z,7.05
2019-02-23T04:04:56.479Z,8.23
2019-02-23T04:07:26.750Z,7.22
2019-02-23T04:09:56.838Z,7.85
2019-02-23T04:12:27.099Z,7.85
2019-02-23T04:14:57.211Z,6.80
2019-02-23T04:17:27.501Z,7.20
2019-02-23T04:19:57.844Z,7.58
2019-02-23T04:22:27.992Z,6.28
2019-02-23T04:24:57.996Z,7.53
2019-02-23T04:27:28.298Z,7.87
2019-02-23T04:29:58.373Z,8.00
2019-02-23T04:32:28.648Z,7.70
2019-02-23T04:34:59.090Z,7.65
2019-02-23T04:37:29.095Z,8.35
2019-02-23T04:39:59.123Z,7.40
2019-02-23T04:42:30.296Z,7.33
2019-02-23T04:45:00.428Z,7.70
2019-02-23T04:47:30.793Z,8.05
2019-02-23T04:50:01.125Z,7.20
2019-02-23T04:52:31.496Z,8.00
2019-02-23T04:55:01.630Z,8.03
2019-02-23T04:57:31.653Z,7.60
2019-02-23T05:00:01.764Z,8.25
2019-02-23T05:02:32.455Z,7.70
2019-02-23T05:05:02.859Z,7.95
2019-02-23T05:07:32.957Z,10.20
2019-02-23T05:10:03.797Z,10.20
2019-02-23T05:12:34.188Z,8.75
2019-02-23T05:15:08.953Z,9.35
2019-02-23T05:17:39.359Z,9.30
2019-02-23T05:20:09.689Z,8.78
2019-02-23T05:22:40.960Z,8.70
2019-02-23T05:25:10.973Z,14.55
2019-02-23T05:27:40.991Z,19.12
2019-02-23T05:30:12.513Z,21.68
2019-02-23T05:32:42.743Z,28.95
2019-02-23T05:35:14.283Z,28.85
2019-02-23T05:37:44.558Z,25.65
2019-02-23T05:40:14.930Z,19.25
2019-02-23T05:42:45.784Z,18.10
2019-02-23T05:45:16.170Z,17.02
2019-02-23T05:47:46.247Z,17.90
2019-02-23T05:50:16.563Z,16.85
2019-02-23T05:52:46.766Z,19.27
2019-02-23T05:55:17.062Z,18.48
2019-02-23T05:57:47.144Z,25.68
2019-02-23T06:00:17.226Z,19.10
2019-02-23T06:02:48.423Z,16.85
2019-02-23T06:05:18.455Z,12.23
2019-02-23T06:07:49.547Z,11.40
2019-02-23T06:10:19.555Z,10.90
2019-02-23T06:12:49.778Z,11.73
2019-02-23T06:15:20.762Z,11.08
2019-02-23T06:17:52.408Z,10.15
2019-02-23T06:20:23.104Z,8.35
2019-02-23T06:22:53.223Z,9.10
2019-02-23T06:25:23.201Z,9.30
2019-02-23T06:27:53.490Z,9.00
2019-02-23T06:30:23.823Z,7.62
2019-02-23T06:32:54.186Z,8.53
2019-02-23T06:35:24.517Z,8.25
2019-02-23T06:37:54.920Z,8.35
2019-02-23T06:40:25.258Z,8.98
2019-02-23T06:42:57.808Z,9.43
2019-02-23T06:45:28.708Z,9.00
2019-02-23T06:47:58.729Z,9.38
2019-02-23T06:50:28.760Z,11.30
2019-02-23T06:52:58.808Z,11.65
2019-02-23T06:55:28.803Z,10.53
2019-02-23T06:58:00.080Z,11.25
2019-02-23T07:00:30.332Z,9.85
2019-02-23T07:03:00.460Z,10.70
2019-02-23T07:05:30.724Z,11.38
2019-02-23T07:08:01.077Z,9.73
2019-02-23T07:10:31.412Z,10.13
2019-02-23T07:13:03.666Z,9.28
2019-02-23T07:15:33.759Z,11.78
2019-02-23T07:18:04.966Z,10.08
2019-02-23T07:20:43.883Z,9.80
2019-02-23T07:23:06.975Z,9.30
2019-02-23T07:25:37.043Z,9.48
2019-02-23T07:28:07.051Z,10.48
2019-02-23T07:30:37.356Z,9.60
2019-02-23T07:33:07.726Z,10.28
2019-02-23T07:35:38.113Z,11.08
2019-02-23T07:38:08.653Z,10.95
2019-02-23T07:40:38.722Z,9.85
2019-02-23T07:43:09.018Z,11.03
2019-02-23T07:45:39.099Z,12.20
2019-02-23T07:48:09.480Z,11.63
2019-02-23T07:50:39.827Z,13.60
2019-02-23T07:53:10.190Z,14.43
2019-02-23T07:55:40.525Z,12.35
2019-02-23T07:58:10.859Z,12.93
2019-02-23T08:00:41.277Z,13.70
2019-02-23T08:03:11.632Z,10.93
2019-02-23T08:05:43.591Z,12.37
2019-02-23T08:08:13.715Z,11.38
2019-02-23T08:10:43.730Z,11.20
2019-02-23T08:13:13.745Z,12.10
2019-02-23T08:15:43.755Z,12.05
2019-02-23T08:18:13.851Z,11.80
2019-02-23T08:20:43.883Z,13.10
2019-02-23T08:23:13.919Z,15.85
2019-02-23T08:25:43.925Z,13.13
2019-02-23T08:28:14.020Z,14.58
2019-02-23T08:30:44.306Z,12.73
2019-02-23T08:33:14.621Z,12.35
2019-02-23T08:35:44.698Z,13.28
2019-02-23T08:38:14.768Z,15.08
2019-02-23T08:40:46.476Z,11.50
2019-02-23T08:43:16.772Z,10.35
2019-02-23T08:45:47.181Z,10.30
2019-02-23T08:48:17.305Z,9.33
2019-02-23T08:50:48.059Z,10.90
2019-02-23T08:53:18.261Z,10.98
2019-02-23T08:55:48.266Z,9.55
2019-02-23T08:58:18.561Z,10.25
2019-02-23T09:00:48.881Z,8.13
2019-02-23T09:03:19.223Z,9.33
2019-02-23T09:05:49.479Z,9.40
2019-02-23T09:08:23.494Z,8.25
2019-02-23T09:10:53.717Z,6.60
2019-02-23T09:13:24.011Z,7.85
2019-02-23T09:15:54.394Z,9.78
2019-02-23T09:18:24.472Z,8.10
2019-02-23T09:20:54.483Z,8.28
2019-02-23T09:23:24.497Z,8.35
2019-02-23T09:25:54.565Z,7.42
2019-02-23T09:28:26.192Z,7.75
2019-02-23T09:30:56.655Z,7.50
2019-02-23T09:33:27.043Z,7.70
2019-02-23T09:35:57.365Z,7.80
2019-02-23T09:38:27.431Z,6.20
2019-02-23T09:40:57.442Z,5.80
2019-02-23T09:43:27.461Z,5.65
2019-02-23T09:45:57.494Z,5.85
2019-02-23T09:48:27.664Z,5.72
2019-02-23T09:50:57.931Z,6.58
2019-02-23T09:53:28.002Z,6.20
2019-02-23T09:55:58.023Z,6.17
2019-02-23T09:58:28.022Z,5.22
2019-02-23T10:00:58.042Z,5.90
2019-02-23T10:03:28.072Z,5.95
2019-02-23T10:06:01.039Z,5.85
2019-02-23T10:08:31.333Z,6.00
2019-02-23T10:11:01.471Z,6.10
2019-02-23T10:13:31.555Z,6.30
2019-02-23T10:16:01.658Z,7.10
2019-02-23T10:18:32.797Z,7.50
2019-02-23T10:21:02.877Z,7.45
2019-02-23T10:23:32.907Z,8.68
2019-02-23T10:26:02.953Z,8.10
2019-02-23T10:28:35.130Z,6.60
2019-02-23T10:31:05.463Z,7.30
2019-02-23T10:33:41.387Z,6.65
2019-02-23T10:36:07.239Z,7.42
2019-02-23T10:38:37.562Z,7.78
2019-02-23T10:41:10.513Z,8.05
2019-02-23T10:43:51.493Z,8.48
2019-02-23T10:46:38.402Z,9.43
2019-02-23T10:49:13.888Z,7.33
2019-02-23T10:51:47.579Z,7.62
2019-02-23T10:54:22.435Z,7.72
2019-02-23T10:56:56.847Z,7.00
2019-02-23T10:59:32.160Z,6.90
2019-02-23T11:02:02.797Z,6.85
2019-02-23T11:04:32.809Z,6.55
2019-02-23T11:07:02.828Z,7.00
2019-02-23T11:09:46.447Z,6.37
2019-02-23T11:12:17.044Z,7.47
2019-02-23T11:14:47.704Z,6.67
2019-02-23T11:17:17.779Z,6.60
2019-02-23T11:19:47.858Z,6.00
2019-02-23T11:22:18.124Z,6.95
2019-02-23T11:24:48.462Z,6.90
2019-02-23T11:27:18.558Z,6.42
2019-02-23T11:29:48.817Z,6.05
2019-02-23T11:32:18.927Z,6.90
2019-02-23T11:34:50.585Z,6.72
2019-02-23T11:37:20.626Z,5.75
2019-02-23T11:39:53.545Z,7.80
2019-02-23T11:42:23.840Z,7.12
2019-02-23T11:44:54.200Z,5.78
2019-02-23T11:47:25.116Z,5.35
2019-02-23T11:49:57.819Z,6.28
2019-02-23T11:52:30.969Z,4.83
2019-02-23T11:55:00.943Z,4.55
2019-02-23T11:57:31.001Z,5.10
2019-02-23T12:00:12.187Z,6.10
2019-02-23T12:02:52.085Z,6.20
2019-02-23T12:05:14.403Z,5.85
2019-02-23T12:07:44.689Z,5.15
2019-02-23T12:10:16.934Z,4.30
2019-02-23T12:12:47.046Z,5.00
2019-02-23T12:15:17.316Z,4.37
2019-02-23T12:17:47.968Z,4.60
2019-02-23T12:20:18.354Z,4.42
2019-02-23T12:22:48.675Z,4.75
2019-02-23T12:25:18.760Z,5.55
2019-02-23T12:27:48.759Z,5.15
2019-02-23T12:30:18.789Z,5.92
2019-02-23T12:32:50.396Z,5.78
2019-02-23T12:35:20.421Z,7.10
2019-02-23T12:37:50.425Z,6.28
2019-02-23T12:40:21.630Z,5.95
2019-02-23T12:42:52.009Z,5.28
2019-02-23T12:45:22.034Z,5.50
2019-02-23T12:47:53.483Z,5.75
2019-02-23T12:50:23.892Z,5.58
2019-02-23T12:52:54.863Z,5.72
2019-02-23T12:55:26.307Z,5.35
2019-02-23T12:57:57.963Z,16.05
2019-02-23T13:00:30.495Z,5.55
2019-02-23T13:03:01.928Z,6.08
2019-02-23T13:05:31.938Z,5.25
2019-02-23T13:08:02.299Z,5.60
2019-02-23T13:10:32.867Z,5.08
2019-02-23T13:13:08.722Z,6.17
2019-02-23T13:15:44.962Z,5.50
2019-02-23T13:18:29.813Z,5.67
2019-02-23T13:21:16.817Z,6.12
2019-02-23T13:24:12.790Z,5.85
2019-02-23T13:26:58.166Z,6.50
2019-02-23T13:29:47.929Z,5.78
2019-02-23T13:32:21.261Z,6.65
2019-02-23T13:35:11.329Z,7.80
2019-02-23T13:37:58.190Z,7.00
2019-02-23T13:40:46.224Z,8.15
2019-02-23T13:43:45.484Z,8.35
2019-02-23T13:46:25.938Z,8.30
2019-02-23T13:49:23.654Z,8.35
2019-02-23T13:52:15.605Z,7.95
2019-02-23T13:55:29.189Z,7.70
2019-02-23T13:58:19.557Z,8.48
2019-02-23T14:01:22.354Z,8.43
2019-02-23T14:04:18.839Z,7.90
2019-02-23T14:07:18.145Z,8.55
2019-02-23T14:10:04.982Z,8.98
2019-02-23T14:13:34.969Z,8.48
2019-02-23T14:16:17.428Z,9.48
2019-02-23T14:19:01.678Z,7.95
2019-02-23T14:21:53.538Z,11.33
2019-02-23T14:24:50.379Z,12.80
2019-02-23T14:27:34.899Z,10.75
2019-02-23T14:30:36.949Z,10.05
2019-02-23T14:34:02.225Z,9.63
2019-02-23T14:36:41.755Z,8.95
2019-02-23T14:39:43.985Z,8.53
2019-02-23T14:42:46.143Z,8.23
2019-02-23T14:45:52.672Z,8.90
2019-02-23T14:48:59.200Z,8.35
2019-02-23T14:51:58.019Z,8.48
2019-02-23T14:54:28.750Z,7.78
2019-02-23T14:57:02.228Z,8.00
2019-02-23T14:59:52.219Z,7.50
2019-02-23T15:02:46.685Z,6.92
2019-02-23T15:05:29.038Z,6.45
2019-02-23T15:08:23.267Z,7.53
2019-02-23T15:11:14.374Z,7.40
2019-02-23T15:13:59.414Z,7.33
2019-02-23T15:16:44.405Z,10.80
2019-02-23T15:19:32.849Z,12.18
2019-02-23T15:22:45.035Z,8.98
2019-02-23T15:25:34.855Z,7.50
2019-02-23T15:28:35.750Z,7.53
2019-02-23T15:31:44.328Z,8.73
2019-02-23T15:34:26.461Z,15.00
2019-02-23T15:37:17.205Z,18.50
2019-02-23T15:40:23.945Z,11.75
2019-02-23T15:43:13.924Z,10.65
2019-02-23T15:46:08.725Z,11.60
2019-02-23T15:48:50.839Z,8.60
2019-02-23T15:51:20.851Z,9.18
2019-02-23T15:53:50.879Z,9.28
2019-02-23T15:56:22.143Z,9.00
2019-02-23T15:58:52.149Z,9.30
2019-02-23T16:01:22.182Z,10.30
2019-02-23T16:03:52.193Z,8.93
2019-02-23T16:06:22.239Z,9.15
2019-02-23T16:08:52.516Z,8.60
2019-02-23T16:11:22.590Z,9.58
2019-02-23T16:13:52.916Z,9.85
2019-02-23T16:16:23.105Z,9.73
2019-02-23T16:18:53.386Z,10.13
2019-02-23T16:21:23.452Z,9.95
2019-02-23T16:23:53.727Z,10.93
2019-02-23T16:26:23.803Z,10.30
2019-02-23T16:28:55.862Z,10.75
2019-02-23T16:31:25.871Z,11.08
2019-02-23T16:33:55.897Z,11.05
2019-02-23T16:36:26.156Z,10.65
2019-02-23T16:38:56.565Z,10.15
2019-02-23T16:41:26.935Z,12.20
2019-02-23T16:43:57.255Z,14.80
2019-02-23T16:46:27.621Z,12.82
2019-02-23T16:48:57.704Z,11.80
2019-02-23T16:51:27.988Z,10.65
2019-02-23T16:53:58.485Z,10.75
2019-02-23T16:56:28.582Z,11.40
2019-02-23T16:58:58.784Z,10.93
2019-02-23T17:01:28.805Z,11.45
2019-02-23T17:04:04.141Z,11.20
2019-02-23T17:06:34.560Z,11.45
2019-02-23T17:09:04.928Z,10.72
2019-02-23T17:11:36.723Z,12.80
2019-02-23T17:14:06.750Z,13.28
2019-02-23T17:16:37.087Z,14.40
2019-02-23T17:19:07.163Z,13.75
2019-02-23T17:21:37.279Z,14.20
2019-02-23T17:24:07.296Z,15.15
2019-02-23T17:26:37.569Z,17.17
2019-02-23T17:29:07.995Z,17.00
2019-02-23T17:31:38.358Z,15.32
2019-02-23T17:34:08.379Z,15.20
2019-02-23T17:36:38.429Z,13.03
2019-02-23T17:39:10.162Z,13.72
2019-02-23T17:41:40.618Z,13.48
2019-02-23T17:44:10.899Z,14.73
2019-02-23T17:46:41.264Z,13.48
2019-02-23T17:49:11.436Z,13.68
2019-02-23T17:51:41.516Z,14.10
2019-02-23T17:54:11.611Z,14.35
2019-02-23T17:56:41.626Z,27.37
2019-02-23T17:59:12.110Z,20.85
2019-02-23T18:01:42.188Z,23.00
2019-02-23T18:04:12.489Z,17.65
2019-02-23T18:06:43.409Z,15.50
2019-02-23T18:09:13.570Z,15.32
2019-02-23T18:11:43.765Z,16.12
2019-02-23T18:14:13.796Z,22.48
2019-02-23T18:16:44.282Z,18.35
2019-02-23T18:19:14.351Z,20.12
2019-02-23T18:21:47.792Z,20.23
2019-02-23T18:24:17.806Z,16.42
2019-02-23T18:26:47.849Z,16.73
2019-02-23T18:29:19.667Z,12.88
2019-02-23T18:31:49.936Z,14.58
2019-02-23T18:34:23.377Z,13.83
2019-02-23T18:36:53.813Z,15.93
2019-02-23T18:39:26.797Z,16.48
2019-02-23T18:41:57.226Z,15.53
2019-02-23T18:44:28.817Z,15.00
2019-02-23T18:46:59.215Z,15.15
2019-02-23T18:49:31.465Z,15.40
2019-02-23T18:52:01.954Z,16.45
2019-02-23T18:54:34.171Z,16.20
2019-02-23T18:57:04.537Z,15.30
2019-02-23T18:59:35.023Z,14.78
2019-02-23T19:02:05.331Z,15.18
2019-02-23T19:04:37.109Z,14.00
2019-02-23T19:07:08.834Z,15.28
2019-02-23T19:09:39.226Z,14.10
2019-02-23T19:12:09.320Z,13.55
2019-02-23T19:14:39.450Z,13.90
2019-02-23T19:17:09.706Z,14.03
2019-02-23T19:19:41.822Z,13.68
2019-02-23T19:22:13.906Z,14.80
2019-02-23T19:24:44.432Z,15.75
2019-02-23T19:27:14.687Z,14.78
2019-02-23T19:29:45.155Z,15.35
2019-02-23T19:32:17.033Z,14.15
2019-02-23T19:34:47.310Z,14.03
2019-02-23T19:37:17.436Z,13.78
2019-02-23T19:39:47.447Z,14.10
2019-02-23T19:42:19.820Z,13.72
2019-02-23T19:44:51.176Z,13.18
2019-02-23T19:47:22.303Z,13.40
2019-02-23T19:49:54.419Z,14.60
2019-02-23T19:52:24.770Z,15.13
2019-02-23T19:54:54.981Z,15.00
2019-02-23T19:57:25.263Z,14.65
2019-02-23T19:59:55.443Z,14.85
2019-02-23T20:02:25.471Z,13.95
2019-02-23T20:04:55.922Z,14.45
2019-02-23T20:07:25.981Z,14.60
2019-02-23T20:10:04.839Z,14.25
2019-02-23T20:12:35.590Z,15.08
2019-02-23T20:15:08.046Z,12.82
2019-02-23T20:17:38.396Z,12.07
2019-02-23T20:20:08.898Z,13.00
2019-02-23T20:22:39.340Z,12.58
2019-02-23T20:25:10.430Z,12.65
2019-02-23T20:27:41.918Z,13.45
2019-02-23T20:30:12.775Z,13.40
2019-02-23T20:32:42.873Z,15.40
2019-02-23T20:35:13.161Z,14.15
2019-02-23T20:37:43.727Z,13.10
2019-02-23T20:40:13.792Z,13.90
2019-02-23T20:42:43.895Z,12.47
2019-02-23T20:45:14.010Z,13.62
2019-02-23T20:47:52.156Z,14.83
2019-02-23T20:50:22.587Z,14.15
2019-02-23T20:52:52.897Z,13.85
2019-02-23T20:55:24.039Z,15.00
2019-02-23T20:57:54.985Z,12.53
2019-02-23T21:00:27.119Z,14.40
2019-02-23T21:02:57.225Z,14.33
2019-02-23T21:05:27.528Z,15.25
2019-02-23T21:07:57.902Z,14.35
2019-02-23T21:10:28.095Z,13.45
2019-02-23T21:12:58.358Z,15.90
2019-02-23T21:15:29.747Z,16.05
2019-02-23T21:17:59.825Z,16.73
2019-02-23T21:20:30.089Z,15.20
2019-02-23T21:23:00.225Z,16.52
2019-02-23T21:25:31.332Z,15.88
2019-02-23T21:28:01.884Z,16.57
2019-02-23T21:30:32.298Z,15.75
2019-02-23T21:33:04.308Z,15.45
2019-02-23T21:35:34.686Z,15.70
2019-02-23T21:38:06.022Z,15.78
2019-02-23T21:40:36.154Z,16.10
2019-02-23T21:43:06.162Z,15.68
2019-02-23T21:45:36.463Z,15.20
2019-02-23T21:48:07.484Z,15.78
2019-02-23T21:50:37.491Z,15.13
2019-02-23T21:53:08.063Z,22.32
2019-02-23T21:55:38.129Z,24.45
2019-02-23T21:58:08.415Z,18.07
2019-02-23T22:00:38.740Z,16.27
2019-02-23T22:03:09.359Z,15.50
2019-02-23T22:05:39.697Z,16.02
2019-02-23T22:08:10.037Z,15.88
2019-02-23T22:10:41.735Z,15.32
2019-02-23T22:13:11.754Z,13.45
2019-02-23T22:15:41.754Z,15.83
2019-02-23T22:18:12.091Z,15.50
2019-02-23T22:20:42.202Z,16.42
2019-02-23T22:23:12.206Z,14.70
2019-02-23T22:25:42.209Z,15.43
2019-02-23T22:28:12.269Z,15.23
2019-02-23T22:30:42.268Z,15.72
2019-02-23T22:33:12.549Z,14.20
2019-02-23T22:35:42.867Z,14.55
2019-02-23T22:38:13.267Z,14.63
2019-02-23T22:40:43.326Z,15.90
2019-02-23T22:43:13.333Z,13.88
2019-02-23T22:45:43.382Z,14.43
2019-02-23T22:48:13.660Z,14.20
2019-02-23T22:50:43.988Z,14.23
2019-02-23T22:53:14.471Z,12.95
2019-02-23T22:55:44.543Z,14.45
2019-02-23T22:58:14.559Z,13.22
2019-02-23T23:00:54.737Z,14.25
2019-02-23T23:03:26.371Z,13.78
2019-02-23T23:05:56.919Z,14.03
2019-02-23T23:08:26.996Z,14.83
2019-02-23T23:10:57.261Z,14.53
2019-02-23T23:13:27.670Z,13.28
2019-02-23T23:15:58.024Z,12.60
2019-02-23T23:18:28.216Z,12.82
2019-02-23T23:20:58.222Z,18.60
2019-02-23T23:23:28.254Z,16.35
2019-02-23T23:25:58.290Z,16.73
2019-02-23T23:28:28.548Z,13.28
2019-02-23T23:31:00.174Z,13.05
2019-02-23T23:33:30.499Z,13.38
2019-02-23T23:36:00.693Z,14.33
2019-02-23T23:38:30.724Z,13.00
2019-02-23T23:41:00.727Z,13.05
2019-02-23T23:43:30.988Z,12.75
2019-02-23T23:46:01.063Z,12.63
2019-02-23T23:48:31.619Z,11.70
2019-02-23T23:51:01.722Z,12.63
2019-02-23T23:53:31.753Z,11.33
2019-02-23T23:56:02.049Z,11.97
2019-02-23T23:58:32.112Z,12.63
